Time;durP1;ratioP1;P1;durP2;ratioP2;P2;SDS_P1;SDS_P2;PMS_P1;PMS_P2;Temp;Humidity;BMP_temperature;BMP_pressure;BME280_temperature;BME280_humidity;BME280_pressure;Samples;Min_cycle;Max_cycle;Signal;HPM_P1;HPM_P2
2021/11/05 00:01:44;;;;;;;6.40;4.57;;;;;;;;;;5011627;28;20503;-57
2021/11/05 00:04:11;;;;;;;7.05;4.20;;;;;;;;;;5004070;28;20018;-57
2021/11/05 00:06:36;;;;;;;6.57;4.28;;;;;;;;;;4993457;28;20068;-57
2021/11/05 00:09:02;;;;;;;6.95;4.20;;;;;;;;;;5012621;28;20065;-57
2021/11/05 00:11:28;;;;;;;5.78;4.03;;;;;;;;;;5002959;28;20052;-58
2021/11/05 00:13:54;;;;;;;7.03;3.70;;;;;;;;;;5006269;28;20496;-57
2021/11/05 00:16:19;;;;;;;5.43;3.85;;;;;;;;;;5010096;28;20030;-57
2021/11/05 00:18:45;;;;;;;5.55;3.85;;;;;;;;;;5008405;28;20022;-57
2021/11/05 00:21:10;;;;;;;6.22;3.55;;;;;;;;;;5011815;28;20087;-58
2021/11/05 00:23:36;;;;;;;4.65;3.78;;;;;;;;;;5012169;28;20283;-58
2021/11/05 00:26:01;;;;;;;5.13;3.60;;;;;;;;;;4977495;28;20033;-57
2021/11/05 00:28:27;;;;;;;4.60;3.25;;;;;;;;;;4973741;28;20029;-57
2021/11/05 00:30:52;;;;;;;4.75;3.15;;;;;;;;;;4994337;28;20033;-57
2021/11/05 00:33:18;;;;;;;4.85;3.17;;;;;;;;;;4979287;28;20518;-57
2021/11/05 00:35:43;;;;;;;5.93;3.38;;;;;;;;;;4990030;28;20037;-57
2021/11/05 00:38:08;;;;;;;3.97;2.90;;;;;;;;;;4982752;28;20033;-57
2021/11/05 00:40:34;;;;;;;5.03;3.55;;;;;;;;;;5002428;28;20087;-57
2021/11/05 00:42:59;;;;;;;3.67;3.28;;;;;;;;;;5010934;28;20030;-57
2021/11/05 00:45:25;;;;;;;5.05;3.25;;;;;;;;;;4965489;28;20021;-57
2021/11/05 00:47:51;;;;;;;3.67;2.95;;;;;;;;;;5008563;28;20064;-57
2021/11/05 00:50:16;;;;;;;4.20;3.35;;;;;;;;;;4991954;28;20040;-57
2021/11/05 00:52:42;;;;;;;3.95;2.90;;;;;;;;;;5014455;28;20057;-57
2021/11/05 00:55:08;;;;;;;4.72;3.08;;;;;;;;;;5009806;28;20025;-57
2021/11/05 00:57:34;;;;;;;3.80;2.47;;;;;;;;;;4987074;28;20503;-57
2021/11/05 00:59:59;;;;;;;5.25;2.83;;;;;;;;;;4990944;28;20025;-57
2021/11/05 01:02:25;;;;;;;5.35;3.25;;;;;;;;;;5013650;28;20037;-57
2021/11/05 01:04:50;;;;;;;4.35;3.30;;;;;;;;;;4979343;28;20028;-58
2021/11/05 01:07:16;;;;;;;3.90;2.90;;;;;;;;;;4988281;28;20041;-58
2021/11/05 01:09:41;;;;;;;3.40;2.67;;;;;;;;;;5012319;28;20112;-57
2021/11/05 01:12:08;;;;;;;3.88;3.00;;;;;;;;;;5010979;28;20123;-59
2021/11/05 01:14:33;;;;;;;3.90;3.10;;;;;;;;;;4989931;28;20049;-57
2021/11/05 01:16:59;;;;;;;5.35;3.05;;;;;;;;;;4969332;28;20108;-59
2021/11/05 01:19:26;;;;;;;3.85;2.67;;;;;;;;;;4976506;28;20470;-58
2021/11/05 01:21:51;;;;;;;4.18;3.10;;;;;;;;;;4996030;28;20125;-58
2021/11/05 01:24:17;;;;;;;3.97;2.63;;;;;;;;;;4984963;28;20022;-58
2021/11/05 01:26:42;;;;;;;2.78;2.42;;;;;;;;;;4994704;28;20030;-57
2021/11/05 01:29:08;;;;;;;4.68;2.95;;;;;;;;;;4982428;28;20064;-58
2021/11/05 01:31:34;;;;;;;5.97;3.20;;;;;;;;;;4993070;28;20038;-58
2021/11/05 01:33:59;;;;;;;4.78;2.95;;;;;;;;;;5004792;28;20476;-58
2021/11/05 01:36:25;;;;;;;5.72;3.28;;;;;;;;;;4994600;28;20033;-58
2021/11/05 01:38:50;;;;;;;4.75;3.00;;;;;;;;;;4989145;28;20047;-57
2021/11/05 01:41:16;;;;;;;4.95;2.88;;;;;;;;;;5010456;28;20032;-56
2021/11/05 01:43:44;;;;;;;4.07;2.85;;;;;;;;;;4982725;28;20030;-57
2021/11/05 01:46:10;;;;;;;4.25;2.70;;;;;;;;;;4991313;28;20030;-58
2021/11/05 01:48:37;;;;;;;4.50;2.83;;;;;;;;;;5005858;28;20038;-57
2021/11/05 01:51:03;;;;;;;5.45;3.38;;;;;;;;;;5006100;28;20296;-57
2021/11/05 01:53:28;;;;;;;4.38;3.33;;;;;;;;;;5004645;28;20045;-56
2021/11/05 01:55:54;;;;;;;5.50;3.17;;;;;;;;;;4972574;28;20037;-56
2021/11/05 01:58:20;;;;;;;4.00;3.13;;;;;;;;;;4991710;28;20040;-59
2021/11/05 02:00:47;;;;;;;4.18;2.95;;;;;;;;;;5006333;28;20030;-58
2021/11/05 02:03:14;;;;;;;3.80;2.90;;;;;;;;;;4957089;28;20029;-57
2021/11/05 02:05:40;;;;;;;4.68;3.22;;;;;;;;;;4990102;28;20554;-58
2021/11/05 02:08:06;;;;;;;4.40;2.97;;;;;;;;;;5009215;28;20033;-59
2021/11/05 02:10:31;;;;;;;4.57;3.95;;;;;;;;;;5005977;28;20045;-57
2021/11/05 02:12:57;;;;;;;4.10;3.40;;;;;;;;;;4988575;28;20515;-57
2021/11/05 02:15:25;;;;;;;5.80;3.58;;;;;;;;;;4986831;28;20065;-57
2021/11/05 02:17:51;;;;;;;4.38;3.10;;;;;;;;;;4984959;28;20030;-57
2021/11/05 02:20:20;;;;;;;4.85;3.50;;;;;;;;;;4973799;28;20484;-57
2021/11/05 02:22:46;;;;;;;6.28;3.85;;;;;;;;;;4988640;28;20017;-57
2021/11/05 02:25:12;;;;;;;4.95;3.72;;;;;;;;;;4986122;28;20813;-57
2021/11/05 02:27:38;;;;;;;4.72;3.65;;;;;;;;;;5005611;28;20620;-57
2021/11/05 02:30:07;;;;;;;5.55;3.70;;;;;;;;;;4993620;28;20091;-58
2021/11/05 02:32:34;;;;;;;4.70;3.30;;;;;;;;;;5004920;28;20058;-58
2021/11/05 02:34:59;;;;;;;4.30;3.05;;;;;;;;;;4976883;28;20044;-58
2021/11/05 02:37:26;;;;;;;4.93;3.20;;;;;;;;;;4993109;28;20025;-57
2021/11/05 02:39:53;;;;;;;4.68;3.20;;;;;;;;;;4987850;28;20081;-58
2021/11/05 02:42:19;;;;;;;4.55;3.20;;;;;;;;;;5005191;28;20038;-57
2021/11/05 02:44:44;;;;;;;4.60;3.20;;;;;;;;;;5011117;28;20159;-58
2021/11/05 02:47:24;;;;;;;5.85;3.60;;;;;;;;;;4987507;28;20850;-58
2021/11/05 02:49:51;;;;;;;5.13;3.38;;;;;;;;;;5004585;28;20478;-57
2021/11/05 02:52:17;;;;;;;5.72;3.58;;;;;;;;;;5009998;28;20454;-58
2021/11/05 02:54:43;;;;;;;5.75;3.78;;;;;;;;;;4992293;28;20501;-57
2021/11/05 02:57:09;;;;;;;4.07;3.28;;;;;;;;;;4993049;28;20037;-57
2021/11/05 02:59:35;;;;;;;4.43;3.28;;;;;;;;;;5009609;28;20034;-57
2021/11/05 03:02:01;;;;;;;4.93;3.47;;;;;;;;;;5010968;28;20030;-58
2021/11/05 03:04:27;;;;;;;6.35;3.58;;;;;;;;;;5012008;28;20376;-58
2021/11/05 03:06:59;;;;;;;5.65;3.83;;;;;;;;;;4978300;28;20112;-61
2021/11/05 03:09:24;;;;;;;7.15;3.38;;;;;;;;;;4994051;28;20042;-59
2021/11/05 03:11:49;;;;;;;6.85;4.03;;;;;;;;;;5011496;28;20143;-58
2021/11/05 03:14:15;;;;;;;4.70;3.63;;;;;;;;;;4992396;28;20105;-58
2021/11/05 03:16:41;;;;;;;4.63;3.45;;;;;;;;;;4996583;28;21319;-58
2021/11/05 03:19:08;;;;;;;5.32;3.75;;;;;;;;;;5014987;28;20036;-58
2021/11/05 03:21:34;;;;;;;4.32;2.90;;;;;;;;;;5009603;28;20064;-59
2021/11/05 03:23:59;;;;;;;5.78;3.47;;;;;;;;;;4985971;28;20107;-60
2021/11/05 03:26:25;;;;;;;5.32;3.67;;;;;;;;;;4998820;28;20530;-58
2021/11/05 03:28:51;;;;;;;4.95;3.28;;;;;;;;;;5011365;28;20438;-59
2021/11/05 03:31:17;;;;;;;5.15;3.58;;;;;;;;;;4981076;28;20017;-58
2021/11/05 03:33:42;;;;;;;5.10;3.28;;;;;;;;;;4994306;28;20160;-60
2021/11/05 03:36:08;;;;;;;7.45;3.47;;;;;;;;;;5014232;28;20487;-59
2021/11/05 03:38:34;;;;;;;4.60;2.92;;;;;;;;;;4990012;28;20029;-60
2021/11/05 03:40:59;;;;;;;5.35;3.78;;;;;;;;;;4974307;28;20025;-60
2021/11/05 03:43:25;;;;;;;5.18;3.78;;;;;;;;;;5006039;28;20025;-59
2021/11/05 03:45:50;;;;;;;6.90;3.80;;;;;;;;;;5010432;28;20030;-60
2021/11/05 03:48:16;;;;;;;5.57;3.70;;;;;;;;;;4989742;28;20032;-60
2021/11/05 03:50:41;;;;;;;5.05;3.20;;;;;;;;;;5009406;28;20063;-59
2021/11/05 03:53:07;;;;;;;5.25;3.53;;;;;;;;;;4991248;28;20029;-59
2021/11/05 03:55:32;;;;;;;4.57;3.20;;;;;;;;;;4988871;28;20088;-59
2021/11/05 03:57:58;;;;;;;4.30;3.40;;;;;;;;;;5010424;28;20040;-58
2021/11/05 04:00:23;;;;;;;6.38;3.55;;;;;;;;;;4956726;28;20356;-59
2021/11/05 04:02:49;;;;;;;6.68;3.40;;;;;;;;;;4993482;28;20445;-57
2021/11/05 04:05:15;;;;;;;4.18;3.17;;;;;;;;;;5010529;28;20491;-57
2021/11/05 04:07:41;;;;;;;6.88;4.18;;;;;;;;;;4975233;28;20033;-58
2021/11/05 04:10:07;;;;;;;6.45;4.40;;;;;;;;;;4989290;28;20108;-60
2021/11/05 04:12:32;;;;;;;7.28;4.78;;;;;;;;;;5006825;28;20117;-57
2021/11/05 04:14:58;;;;;;;6.93;4.68;;;;;;;;;;4993582;28;20087;-58
2021/11/05 04:17:24;;;;;;;8.27;4.63;;;;;;;;;;5006315;28;20076;-59
2021/11/05 04:19:49;;;;;;;6.85;4.50;;;;;;;;;;4992535;28;20543;-59
2021/11/05 04:22:15;;;;;;;5.28;3.88;;;;;;;;;;4990352;28;20427;-59
2021/11/05 04:24:40;;;;;;;5.13;3.45;;;;;;;;;;4989938;28;20030;-60
2021/11/05 04:27:06;;;;;;;4.75;3.42;;;;;;;;;;4976059;28;20465;-59
2021/11/05 04:29:32;;;;;;;5.32;3.10;;;;;;;;;;4991378;28;20107;-61
2021/11/05 04:31:58;;;;;;;6.10;3.75;;;;;;;;;;5010188;28;20407;-60
2021/11/05 04:34:23;;;;;;;4.97;3.65;;;;;;;;;;4994326;28;20029;-59
2021/11/05 04:36:49;;;;;;;4.45;3.20;;;;;;;;;;4980261;28;20025;-60
2021/11/05 04:39:17;;;;;;;5.13;3.17;;;;;;;;;;5005198;28;20349;-59
2021/11/05 04:41:43;;;;;;;4.65;2.90;;;;;;;;;;5002481;28;20029;-59
2021/11/05 04:44:09;;;;;;;4.70;3.13;;;;;;;;;;4972643;28;21562;-58
2021/11/05 04:46:35;;;;;;;6.57;3.50;;;;;;;;;;4971009;28;20034;-59
2021/11/05 04:49:00;;;;;;;8.50;4.63;;;;;;;;;;4986328;28;20407;-58
2021/11/05 04:51:26;;;;;;;8.55;4.20;;;;;;;;;;4980396;28;20081;-59
2021/11/05 04:53:52;;;;;;;6.05;3.83;;;;;;;;;;4977516;28;20030;-58
2021/11/05 04:56:17;;;;;;;6.22;4.10;;;;;;;;;;4995238;28;20021;-58
2021/11/05 04:58:43;;;;;;;6.47;4.18;;;;;;;;;;4967695;28;20422;-58
2021/11/05 05:01:09;;;;;;;5.80;3.30;;;;;;;;;;4988718;28;20037;-59
2021/11/05 05:03:35;;;;;;;4.57;2.92;;;;;;;;;;4960149;28;20029;-58
2021/11/05 05:06:00;;;;;;;5.78;3.83;;;;;;;;;;4992949;28;20388;-58
2021/11/05 05:08:26;;;;;;;6.72;3.70;;;;;;;;;;5004716;28;20377;-58
2021/11/05 05:10:51;;;;;;;6.07;3.65;;;;;;;;;;4993588;28;20075;-59
2021/11/05 05:13:17;;;;;;;6.22;3.65;;;;;;;;;;4991830;28;20033;-58
2021/11/05 05:15:42;;;;;;;11.32;5.80;;;;;;;;;;4993417;28;20037;-58
2021/11/05 05:18:08;;;;;;;4.82;2.97;;;;;;;;;;4987772;28;20021;-59
2021/11/05 05:20:33;;;;;;;5.55;3.40;;;;;;;;;;4958249;28;20052;-59
2021/11/05 05:22:59;;;;;;;5.45;3.83;;;;;;;;;;4975919;28;20181;-59
2021/11/05 05:25:24;;;;;;;5.57;3.17;;;;;;;;;;5015668;28;20075;-58
2021/11/05 05:27:50;;;;;;;4.00;2.83;;;;;;;;;;4989563;28;20026;-58
2021/11/05 05:30:18;;;;;;;4.25;3.00;;;;;;;;;;5007992;28;20119;-57
2021/11/05 05:32:46;;;;;;;3.65;2.75;;;;;;;;;;4994179;28;20377;-58
2021/11/05 05:35:13;;;;;;;4.35;2.92;;;;;;;;;;4979519;28;20038;-58
2021/11/05 05:37:39;;;;;;;4.90;2.88;;;;;;;;;;4989642;28;20029;-58
2021/11/05 05:40:06;;;;;;;11.88;4.68;;;;;;;;;;4970294;28;20049;-57
2021/11/05 05:42:31;;;;;;;5.43;3.15;;;;;;;;;;4975567;28;20117;-57
2021/11/05 05:44:57;;;;;;;3.50;2.55;;;;;;;;;;4990848;28;20069;-57
2021/11/05 05:47:22;;;;;;;3.92;2.83;;;;;;;;;;4989145;28;20041;-58
2021/11/05 05:49:49;;;;;;;6.15;3.30;;;;;;;;;;4972981;28;20049;-59
2021/11/05 05:52:15;;;;;;;3.92;3.05;;;;;;;;;;4992080;28;20515;-57
2021/11/05 05:54:41;;;;;;;7.53;3.78;;;;;;;;;;4993229;28;20037;-57
2021/11/05 05:57:07;;;;;;;4.90;3.53;;;;;;;;;;5007474;28;20036;-57
2021/11/05 05:59:32;;;;;;;5.50;3.47;;;;;;;;;;4999753;28;20048;-57
2021/11/05 06:01:58;;;;;;;8.45;4.30;;;;;;;;;;4986320;28;20184;-56
2021/11/05 06:04:26;;;;;;;9.25;5.05;;;;;;;;;;4996815;28;20083;-56
2021/11/05 06:06:52;;;;;;;6.55;3.75;;;;;;;;;;4993838;28;20543;-57
2021/11/05 06:09:17;;;;;;;5.88;3.13;;;;;;;;;;4971869;28;20554;-58
2021/11/05 06:11:43;;;;;;;7.32;3.45;;;;;;;;;;4993608;28;20030;-59
2021/11/05 06:14:10;;;;;;;4.28;3.35;;;;;;;;;;4995424;28;20076;-59
2021/11/05 06:16:36;;;;;;;5.57;3.17;;;;;;;;;;4985389;28;20026;-59
2021/11/05 06:19:01;;;;;;;5.63;3.65;;;;;;;;;;5006957;28;20033;-58
2021/11/05 06:21:26;;;;;;;6.55;3.60;;;;;;;;;;4971096;28;20033;-60
2021/11/05 06:23:53;;;;;;;6.28;4.15;;;;;;;;;;4990184;28;20533;-58
2021/11/05 06:26:19;;;;;;;6.00;4.20;;;;;;;;;;5006475;28;20435;-60
2021/11/05 06:28:44;;;;;;;6.40;3.70;;;;;;;;;;5004002;28;20030;-59
2021/11/05 06:31:09;;;;;;;9.02;5.50;;;;;;;;;;4990872;28;20330;-59
2021/11/05 06:33:35;;;;;;;5.20;3.72;;;;;;;;;;4990308;28;20099;-59
2021/11/05 06:36:01;;;;;;;5.88;3.50;;;;;;;;;;5007009;28;20040;-58
2021/11/05 06:38:27;;;;;;;10.00;3.88;;;;;;;;;;5004108;28;20098;-59
2021/11/05 06:40:52;;;;;;;6.15;3.40;;;;;;;;;;5007531;28;20065;-59
2021/11/05 06:43:18;;;;;;;7.78;3.47;;;;;;;;;;4990216;28;20435;-59
2021/11/05 06:45:44;;;;;;;4.32;2.83;;;;;;;;;;5006006;28;20113;-59
2021/11/05 06:48:11;;;;;;;3.40;2.65;;;;;;;;;;5011538;28;20052;-59
2021/11/05 06:50:38;;;;;;;4.45;2.70;;;;;;;;;;4988553;28;20419;-59
2021/11/05 06:53:03;;;;;;;5.00;2.65;;;;;;;;;;4972727;28;20496;-59
2021/11/05 06:55:29;;;;;;;4.03;2.53;;;;;;;;;;4984651;28;20037;-58
2021/11/05 06:57:54;;;;;;;3.92;3.10;;;;;;;;;;4994424;28;20041;-58
2021/11/05 07:00:20;;;;;;;5.75;3.63;;;;;;;;;;4978794;28;20029;-58
2021/11/05 07:02:45;;;;;;;4.70;3.13;;;;;;;;;;4988478;28;20029;-59
2021/11/05 07:05:13;;;;;;;4.93;3.20;;;;;;;;;;4982550;28;20065;-59
2021/11/05 07:07:39;;;;;;;5.78;3.38;;;;;;;;;;4985489;28;20026;-59
2021/11/05 07:10:06;;;;;;;5.85;2.70;;;;;;;;;;4982190;28;20025;-59
2021/11/05 07:12:32;;;;;;;3.13;2.30;;;;;;;;;;5000855;28;20033;-59
2021/11/05 07:14:58;;;;;;;3.25;2.47;;;;;;;;;;5002430;28;20149;-59
2021/11/05 07:17:24;;;;;;;2.83;2.30;;;;;;;;;;4988375;28;20030;-59
2021/11/05 07:19:49;;;;;;;4.05;2.90;;;;;;;;;;4972040;28;20044;-59
2021/11/05 07:22:15;;;;;;;3.65;2.60;;;;;;;;;;5007905;28;20022;-60
2021/11/05 07:24:41;;;;;;;2.83;2.20;;;;;;;;;;4984596;28;20036;-59
2021/11/05 07:27:10;;;;;;;3.50;2.55;;;;;;;;;;5006138;28;20057;-58
2021/11/05 07:29:35;;;;;;;2.80;2.22;;;;;;;;;;5005538;28;20041;-59
2021/11/05 07:32:04;;;;;;;4.20;2.42;;;;;;;;;;5004026;28;20366;-59
2021/11/05 07:34:30;;;;;;;6.78;2.90;;;;;;;;;;4986375;28;20439;-59
2021/11/05 07:37:07;;;;;;;4.13;2.35;;;;;;;;;;5006676;28;20084;-59
2021/11/05 07:39:32;;;;;;;5.18;3.03;;;;;;;;;;5006058;28;20037;-59
2021/11/05 07:41:58;;;;;;;4.90;2.85;;;;;;;;;;4992073;28;20030;-59
2021/11/05 07:44:23;;;;;;;3.35;2.47;;;;;;;;;;5009127;28;20392;-59
2021/11/05 07:46:49;;;;;;;3.42;2.50;;;;;;;;;;4963528;28;20519;-58
2021/11/05 07:49:15;;;;;;;3.75;2.63;;;;;;;;;;5003184;28;20109;-58
2021/11/05 07:51:41;;;;;;;3.53;2.55;;;;;;;;;;4994618;28;20033;-58
2021/11/05 07:54:09;;;;;;;3.63;2.92;;;;;;;;;;4971845;28;20036;-59
2021/11/05 07:56:35;;;;;;;4.22;2.50;;;;;;;;;;5005506;28;20386;-59
2021/11/05 07:59:03;;;;;;;4.22;2.63;;;;;;;;;;4972499;28;20037;-59
2021/11/05 08:01:28;;;;;;;3.60;2.80;;;;;;;;;;4991018;28;20029;-59
2021/11/05 08:03:54;;;;;;;4.47;2.95;;;;;;;;;;4984781;28;20076;-58
2021/11/05 08:06:19;;;;;;;3.72;2.80;;;;;;;;;;4993197;28;20034;-58
2021/11/05 08:08:45;;;;;;;6.68;3.30;;;;;;;;;;5006651;28;20033;-58
2021/11/05 08:11:12;;;;;;;6.18;3.35;;;;;;;;;;4992748;28;20124;-58
2021/11/05 08:13:38;;;;;;;4.25;2.90;;;;;;;;;;5009387;28;20056;-59
2021/11/05 08:16:03;;;;;;;2.78;2.40;;;;;;;;;;4987584;28;20041;-59
2021/11/05 08:18:29;;;;;;;4.22;2.58;;;;;;;;;;5003393;28;20373;-58
2021/11/05 08:20:54;;;;;;;5.05;3.17;;;;;;;;;;4991461;28;20026;-58
2021/11/05 08:23:20;;;;;;;4.68;3.00;;;;;;;;;;5007134;28;20022;-58
2021/11/05 08:25:47;;;;;;;3.58;2.85;;;;;;;;;;5008688;28;20036;-58
2021/11/05 08:28:14;;;;;;;3.67;2.83;;;;;;;;;;4992585;28;20029;-58
2021/11/05 08:30:40;;;;;;;3.38;2.70;;;;;;;;;;4989926;28;20399;-58
2021/11/05 08:33:05;;;;;;;5.10;2.83;;;;;;;;;;5001618;28;20033;-59
2021/11/05 08:35:32;;;;;;;3.67;2.80;;;;;;;;;;5003140;28;20040;-58
2021/11/05 08:37:59;;;;;;;3.97;2.83;;;;;;;;;;4989158;28;20033;-58
2021/11/05 08:40:24;;;;;;;4.82;2.67;;;;;;;;;;5014831;28;20029;-58
2021/11/05 08:42:51;;;;;;;4.45;3.10;;;;;;;;;;4971686;28;20022;-58
2021/11/05 08:45:17;;;;;;;7.10;3.35;;;;;;;;;;5003177;28;20483;-58
2021/11/05 08:47:43;;;;;;;3.95;3.03;;;;;;;;;;5000653;28;20048;-59
2021/11/05 08:50:18;;;;;;;4.40;3.08;;;;;;;;;;5003576;28;20030;-60
2021/11/05 08:52:44;;;;;;;3.30;2.58;;;;;;;;;;5006647;28;20057;-58
2021/11/05 08:55:10;;;;;;;4.88;3.10;;;;;;;;;;5009041;28;20021;-59
2021/11/05 08:57:37;;;;;;;4.47;2.80;;;;;;;;;;5001198;28;20119;-58
2021/11/05 09:00:09;;;;;;;4.20;2.80;;;;;;;;;;4979385;28;20562;-58
2021/11/05 09:02:35;;;;;;;4.72;3.05;;;;;;;;;;4992200;28;20042;-58
2021/11/05 09:05:02;;;;;;;6.05;3.70;;;;;;;;;;4989242;28;20029;-59
2021/11/05 09:07:28;;;;;;;4.85;3.60;;;;;;;;;;4986788;28;20041;-58
2021/11/05 09:09:54;;;;;;;8.43;4.10;;;;;;;;;;4989139;28;20030;-58
2021/11/05 09:12:19;;;;;;;6.18;3.40;;;;;;;;;;4979864;28;20183;-58
2021/11/05 09:14:45;;;;;;;5.25;3.53;;;;;;;;;;5000781;28;20551;-59
2021/11/05 09:17:10;;;;;;;6.45;3.63;;;;;;;;;;4987535;28;20033;-59
2021/11/05 09:19:36;;;;;;;5.25;3.30;;;;;;;;;;5004756;28;20038;-58
2021/11/05 09:22:02;;;;;;;4.18;3.33;;;;;;;;;;5005170;28;20038;-58
2021/11/05 09:24:27;;;;;;;4.82;3.40;;;;;;;;;;4994211;28;20033;-58
2021/11/05 09:26:53;;;;;;;6.43;3.30;;;;;;;;;;5008221;28;20462;-58
2021/11/05 09:29:19;;;;;;;5.03;3.30;;;;;;;;;;5005118;28;20038;-58
2021/11/05 09:31:45;;;;;;;5.10;3.90;;;;;;;;;;5006991;28;20187;-58
2021/11/05 09:34:10;;;;;;;6.40;4.03;;;;;;;;;;5008881;28;20037;-58
2021/11/05 09:36:36;;;;;;;5.60;4.25;;;;;;;;;;4987656;28;20435;-58
2021/11/05 09:39:03;;;;;;;4.82;3.40;;;;;;;;;;4988505;28;20488;-58
2021/11/05 09:41:29;;;;;;;4.75;3.42;;;;;;;;;;5005322;28;20403;-58
2021/11/05 09:43:55;;;;;;;5.75;4.28;;;;;;;;;;4994180;28;20026;-58
2021/11/05 09:46:20;;;;;;;5.72;4.30;;;;;;;;;;5005117;28;20030;-58
2021/11/05 09:48:46;;;;;;;5.57;3.97;;;;;;;;;;4989274;28;20582;-58
2021/11/05 09:51:13;;;;;;;5.45;3.65;;;;;;;;;;4995511;28;20034;-58
2021/11/05 09:53:39;;;;;;;5.80;4.22;;;;;;;;;;5003428;28;20491;-58
2021/11/05 09:56:07;;;;;;;5.80;3.90;;;;;;;;;;5001782;28;20026;-58
2021/11/05 09:58:33;;;;;;;6.65;4.20;;;;;;;;;;5006442;28;20060;-58
2021/11/05 10:00:59;;;;;;;5.68;4.60;;;;;;;;;;4989021;28;20037;-58
2021/11/05 10:03:24;;;;;;;5.88;4.15;;;;;;;;;;4988761;28;20455;-58
2021/11/05 10:05:53;;;;;;;4.47;3.70;;;;;;;;;;5006630;28;20044;-58
2021/11/05 10:08:50;;;;;;;5.57;3.80;;;;;;;;;;4996549;28;20043;-58
2021/11/05 10:11:26;;;;;;;5.57;4.13;;;;;;;;;;4986942;28;20069;-58
2021/11/05 10:13:57;;;;;;;13.35;6.65;;;;;;;;;;5000836;28;20026;-58
2021/11/05 10:16:25;;;;;;;9.85;5.90;;;;;;;;;;5010116;28;20033;-58
2021/11/05 10:18:55;;;;;;;7.15;4.63;;;;;;;;;;5003879;28;20508;-57
2021/11/05 10:21:21;;;;;;;7.22;4.93;;;;;;;;;;5005156;28;20052;-58
2021/11/05 10:23:46;;;;;;;7.07;5.47;;;;;;;;;;5005057;28;20075;-57
2021/11/05 10:26:28;;;;;;;6.43;4.45;;;;;;;;;;4989077;28;20439;-58
2021/11/05 10:28:55;;;;;;;9.32;4.10;;;;;;;;;;5002379;28;20029;-57
2021/11/05 10:31:24;;;;;;;6.10;4.60;;;;;;;;;;5005240;28;20022;-58
2021/11/05 10:33:51;;;;;;;6.85;4.47;;;;;;;;;;4996334;28;20369;-58
2021/11/05 10:36:21;;;;;;;6.22;4.65;;;;;;;;;;5005030;28;20476;-58
2021/11/05 10:38:50;;;;;;;6.38;3.92;;;;;;;;;;4988388;28;20096;-58
2021/11/05 10:41:20;;;;;;;4.20;3.60;;;;;;;;;;5011369;28;20105;-58
2021/11/05 10:43:46;;;;;;;5.53;4.22;;;;;;;;;;4971080;28;20030;-58
2021/11/05 10:46:34;;;;;;;4.70;3.85;;;;;;;;;;5006958;28;20065;-58
2021/11/05 10:49:06;;;;;;;6.28;3.78;;;;;;;;;;5006511;28;20022;-58
2021/11/05 10:51:33;;;;;;;5.07;3.60;;;;;;;;;;4969692;28;20521;-58
2021/11/05 10:54:00;;;;;;;4.97;3.50;;;;;;;;;;4988529;28;20021;-58
2021/11/05 10:56:29;;;;;;;5.18;3.38;;;;;;;;;;4994897;28;20037;-58
2021/11/05 10:58:57;;;;;;;5.70;3.75;;;;;;;;;;4987600;28;20083;-57
2021/11/05 11:01:26;;;;;;;6.20;3.92;;;;;;;;;;5010412;28;20038;-57
2021/11/05 11:03:54;;;;;;;9.02;4.40;;;;;;;;;;4995454;28;20029;-58
2021/11/05 11:06:23;;;;;;;5.68;4.18;;;;;;;;;;4995547;28;20113;-58
2021/11/05 11:09:09;;;;;;;5.40;4.22;;;;;;;;;;4995967;28;20026;-57
2021/11/05 11:11:42;;;;;;;7.65;4.43;;;;;;;;;;4989624;28;20038;-52
2021/11/05 11:14:18;;;;;;;5.97;3.58;;;;;;;;;;5004556;28;20105;-58
2021/11/05 11:16:47;;;;;;;10.32;3.95;;;;;;;;;;5009541;28;20578;-58
2021/11/05 11:19:19;;;;;;;5.65;4.00;;;;;;;;;;5007779;28;20089;-58
2021/11/05 11:21:44;;;;;;;6.63;3.63;;;;;;;;;;4993295;28;20087;-58
2021/11/05 11:24:15;;;;;;;6.53;3.53;;;;;;;;;;4991575;28;20116;-58
2021/11/05 11:26:43;;;;;;;4.40;3.40;;;;;;;;;;5004147;28;20033;-58
2021/11/05 11:29:10;;;;;;;5.10;3.70;;;;;;;;;;5011544;28;20411;-58
2021/11/05 11:31:37;;;;;;;5.15;3.75;;;;;;;;;;5011391;28;20030;-58
2021/11/05 11:34:05;;;;;;;6.68;4.28;;;;;;;;;;5009719;28;20049;-58
2021/11/05 11:36:36;;;;;;;6.00;3.88;;;;;;;;;;5006596;28;20063;-58
2021/11/05 11:39:06;;;;;;;5.22;3.90;;;;;;;;;;4971234;28;20028;-58
2021/11/05 11:41:33;;;;;;;8.63;3.80;;;;;;;;;;5010352;28;20033;-58
2021/11/05 11:44:00;;;;;;;5.78;4.63;;;;;;;;;;4997171;28;20099;-57
2021/11/05 11:46:26;;;;;;;6.32;4.40;;;;;;;;;;4994806;28;20032;-57
2021/11/05 11:48:55;;;;;;;5.18;3.55;;;;;;;;;;4972063;28;20030;-57
2021/11/05 11:51:30;;;;;;;5.18;4.18;;;;;;;;;;5011187;28;20025;-57
2021/11/05 11:54:16;;;;;;;6.85;3.60;;;;;;;;;;4995063;28;20042;-57
2021/11/05 11:56:43;;;;;;;4.72;3.40;;;;;;;;;;4989185;28;20467;-57
2021/11/05 11:59:14;;;;;;;5.55;3.85;;;;;;;;;;4992398;28;20539;-57
2021/11/05 12:01:42;;;;;;;5.88;4.07;;;;;;;;;;4987006;28;20559;-57
2021/11/05 12:04:11;;;;;;;5.93;4.25;;;;;;;;;;4976128;28;20051;-57
2021/11/05 12:06:46;;;;;;;;;;;;;;;;;;4986755;28;20514;-57
2021/11/05 12:09:31;;;;;;;5.75;4.65;;;;;;;;;;5002512;28;19914;-57
2021/11/05 12:12:22;;;;;;;7.57;4.78;;;;;;;;;;5006880;28;20040;-57
2021/11/05 12:15:02;;;;;;;9.98;5.72;;;;;;;;;;5006706;28;20041;-58
2021/11/05 12:17:46;;;;;;;9.48;5.97;;;;;;;;;;5005809;28;20213;-59
2021/11/05 12:20:30;;;;;;;8.10;5.95;;;;;;;;;;5011198;28;20041;-59
2021/11/05 12:23:14;;;;;;;10.32;7.07;;;;;;;;;;5009099;28;20060;-59
2021/11/05 12:25:47;;;;;;;9.32;5.70;;;;;;;;;;5008669;28;20053;-58
2021/11/05 12:28:41;;;;;;;6.20;4.78;;;;;;;;;;4990172;28;20140;-58
2021/11/05 12:31:29;;;;;;;7.32;5.18;;;;;;;;;;5001791;28;20044;-59
2021/11/05 12:34:15;;;;;;;6.53;4.72;;;;;;;;;;5009674;28;20101;-58
2021/11/05 12:36:49;;;;;;;9.30;5.45;;;;;;;;;;4992170;28;20052;-59
2021/11/05 12:39:26;;;;;;;8.45;5.28;;;;;;;;;;4989606;28;20373;-60
2021/11/05 12:42:06;;;;;;;10.60;6.65;;;;;;;;;;4993650;28;20505;-60
2021/11/05 12:44:55;;;;;;;5.82;4.60;;;;;;;;;;5008303;28;20037;-59
2021/11/05 12:47:53;;;;;;;5.78;4.28;;;;;;;;;;5004711;28;20064;-59
2021/11/05 12:50:23;;;;;;;10.15;6.93;;;;;;;;;;5004383;28;20034;-59
2021/11/05 12:52:57;;;;;;;9.20;6.82;;;;;;;;;;5009236;28;20026;-58
2021/11/05 12:55:25;;;;;;;6.10;4.90;;;;;;;;;;5005935;28;20025;-58
2021/11/05 12:57:53;;;;;;;6.60;3.97;;;;;;;;;;4987001;28;20033;-57
2021/11/05 13:00:25;;;;;;;4.80;4.00;;;;;;;;;;4991873;28;20037;-57
2021/11/05 13:03:01;;;;;;;6.05;4.00;;;;;;;;;;4987722;28;20111;-58
2021/11/05 13:05:28;;;;;;;7.53;5.03;;;;;;;;;;4991094;28;20049;-57
2021/11/05 13:07:59;;;;;;;9.60;5.30;;;;;;;;;;4974381;28;20030;-58
2021/11/05 13:10:28;;;;;;;6.72;4.90;;;;;;;;;;4987244;28;20034;-58
2021/11/05 13:12:59;;;;;;;9.70;5.88;;;;;;;;;;4988758;28;20034;-58
2021/11/05 13:15:26;;;;;;;9.05;6.13;;;;;;;;;;5005172;28;20041;-58
2021/11/05 13:17:53;;;;;;;11.77;5.60;;;;;;;;;;4992011;28;20088;-58
2021/11/05 13:20:25;;;;;;;8.90;5.47;;;;;;;;;;4991316;28;20025;-59
2021/11/05 13:22:53;;;;;;;8.90;6.25;;;;;;;;;;5000411;28;20048;-57
2021/11/05 13:25:18;;;;;;;6.78;4.90;;;;;;;;;;4988747;28;20072;-58
2021/11/05 13:30:32;;;;;;;10.57;6.60;;;;;;;;;;5377134;23;20074;-76
2021/11/05 13:33:02;;;;;;;8.35;6.00;;;;;;;;;;4970627;28;20035;-78
2021/11/05 13:35:30;;;;;;;8.38;5.15;;;;;;;;;;4982042;28;20035;-78
2021/11/05 13:38:06;;;;;;;8.02;5.55;;;;;;;;;;4968172;28;20053;-78
2021/11/05 13:40:36;;;;;;;5.85;4.55;;;;;;;;;;4966507;28;20043;-77
2021/11/05 13:43:09;;;;;;;7.13;4.88;;;;;;;;;;4962938;28;20023;-77
2021/11/05 13:45:46;;;;;;;8.05;5.13;;;;;;;;;;4961626;28;20050;-77
2021/11/05 13:48:26;;;;;;;7.57;4.95;;;;;;;;;;4968889;28;20094;-77
2021/11/05 13:51:07;;;;;;;7.45;5.32;;;;;;;;;;4961739;28;20051;-77
2021/11/05 13:53:34;;;;;;;7.28;5.20;;;;;;;;;;4959392;28;20518;-77
2021/11/05 13:56:12;;;;;;;7.28;4.80;;;;;;;;;;4962008;28;20027;-78
2021/11/05 13:58:38;;;;;;;9.85;5.50;;;;;;;;;;4949923;29;20142;-77
2021/11/05 14:01:04;;;;;;;7.95;5.65;;;;;;;;;;4961213;28;20023;-78
2021/11/05 14:03:30;;;;;;;9.18;7.55;;;;;;;;;;4957872;28;20042;-79
2021/11/05 14:06:08;;;;;;;6.88;5.75;;;;;;;;;;4960870;28;20030;-78
2021/11/05 14:08:59;;;;;;;7.03;5.25;;;;;;;;;;4958127;28;20039;-78
2021/11/05 14:11:49;;;;;;;8.52;4.85;;;;;;;;;;4957688;28;20030;-77
2021/11/05 14:14:27;;;;;;;6.63;4.60;;;;;;;;;;4958684;28;20159;-78
2021/11/05 14:16:53;;;;;;;6.05;4.53;;;;;;;;;;4956394;28;20106;-78
2021/11/05 14:19:21;;;;;;;9.57;6.28;;;;;;;;;;4943479;28;20110;-78
2021/11/05 14:21:57;;;;;;;7.75;5.32;;;;;;;;;;4955628;28;20258;-78
2021/11/05 14:24:26;;;;;;;6.75;5.03;;;;;;;;;;4959016;28;20371;-78
2021/11/05 14:27:13;;;;;;;5.88;4.40;;;;;;;;;;4953016;28;20398;-77
2021/11/05 14:29:45;;;;;;;7.63;4.90;;;;;;;;;;4949234;28;20070;-78
2021/11/05 14:32:16;;;;;;;10.70;6.25;;;;;;;;;;4954195;28;20038;-78
2021/11/05 14:34:46;;;;;;;10.43;5.35;;;;;;;;;;4955507;28;20371;-78
2021/11/05 14:37:16;;;;;;;5.88;4.03;;;;;;;;;;4951147;28;20026;-78
2021/11/05 14:40:01;;;;;;;7.35;4.35;;;;;;;;;;4952296;28;20026;-77
2021/11/05 14:42:37;;;;;;;4.80;3.50;;;;;;;;;;4941788;29;20090;-78
2021/11/05 14:45:21;;;;;;;5.65;4.00;;;;;;;;;;4952023;28;20446;-77
2021/11/05 14:47:53;;;;;;;4.15;3.25;;;;;;;;;;4938559;28;20035;-77
2021/11/05 14:50:25;;;;;;;4.70;3.30;;;;;;;;;;4950806;28;20027;-78
2021/11/05 14:53:06;;;;;;;6.68;3.90;;;;;;;;;;4944655;28;20104;-77